Time;durP1;ratioP1;P1;durP2;ratioP2;P2;SDS_P1;SDS_P2;PMS_P1;PMS_P2;Temp;Humidity;BMP_temperature;BMP_pressure;BME280_temperature;BME280_humidity;BME280_pressure;Samples;Min_cycle;Max_cycle;Signal;HPM_P1;HPM_P2
2024/01/15 08:50:49;;;;;;;;;71.00;57.00;;;;;;;;5104195;27;13507;-70
2024/01/15 08:53:14;;;;;;;;;70.33;57.00;;;;;;;;5104288;28;8869;-71
2024/01/15 08:55:40;;;;;;;;;63.00;52.67;;;;;;;;5104518;28;8819;-68
2024/01/15 08:58:06;;;;;;;;;69.00;54.67;;;;;;;;5102115;28;8808;-69
2024/01/15 09:00:31;;;;;;;;;69.00;55.33;;;;;;;;5107257;28;8849;-68
2024/01/15 09:02:56;;;;;;;;;69.00;54.67;;;;;;;;5105839;28;8827;-69
2024/01/15 09:05:22;;;;;;;;;66.00;52.33;;;;;;;;5107333;28;8787;-69
2024/01/15 09:07:47;;;;;;;;;65.67;53.00;;;;;;;;5107949;28;8804;-69
2024/01/15 09:10:13;;;;;;;;;67.00;53.67;;;;;;;;5106321;28;8815;-70
2024/01/15 09:12:39;;;;;;;;;67.00;55.00;;;;;;;;5106003;28;8804;-69
2024/01/15 09:15:04;;;;;;;;;62.00;50.00;;;;;;;;5105862;28;8815;-70
2024/01/15 09:17:29;;;;;;;;;62.00;51.33;;;;;;;;5107331;28;8780;-69
2024/01/15 09:19:55;;;;;;;;;63.33;52.00;;;;;;;;5108416;28;9591;-69
2024/01/15 09:22:20;;;;;;;;;72.00;56.00;;;;;;;;5107355;28;8780;-69
2024/01/15 09:24:46;;;;;;;;;68.00;55.00;;;;;;;;5109805;28;8842;-70
2024/01/15 09:27:11;;;;;;;;;63.67;52.33;;;;;;;;5106430;28;8844;-73
2024/01/15 09:29:45;;;;;;;;;62.33;50.00;;;;;;;;5112693;27;8837;-72
2024/01/15 09:32:10;;;;;;;;;69.33;55.33;;;;;;;;5127842;27;8808;-70
2024/01/15 09:34:35;;;;;;;;;71.00;58.00;;;;;;;;5127415;27;8781;-72
2024/01/15 09:37:01;;;;;;;;;68.67;56.00;;;;;;;;5114264;27;8819;-72
2024/01/15 09:39:27;;;;;;;;;66.33;54.00;;;;;;;;5106550;28;8920;-70
2024/01/15 09:41:52;;;;;;;;;66.67;54.33;;;;;;;;5106165;28;8788;-69
2024/01/15 09:44:18;;;;;;;;;70.33;58.00;;;;;;;;5103474;28;8850;-70
2024/01/15 09:46:44;;;;;;;;;70.67;56.33;;;;;;;;5107345;28;8788;-72
2024/01/15 09:49:10;;;;;;;;;67.00;53.67;;;;;;;;5105257;28;8840;-69
2024/01/15 09:51:36;;;;;;;;;59.33;46.00;;;;;;;;5105859;28;8819;-69
2024/01/15 09:54:02;;;;;;;;;71.00;57.00;;;;;;;;5106642;28;8803;-69
2024/01/15 09:56:27;;;;;;;;;76.67;58.33;;;;;;;;5108160;28;8838;-69
2024/01/15 09:58:52;;;;;;;;;74.00;57.67;;;;;;;;5106904;28;8826;-70
2024/01/15 10:01:19;;;;;;;;;28.67;20.67;;;;;;;;5097846;28;8791;-71
2024/01/15 10:03:45;;;;;;;;;80.00;60.33;;;;;;;;5090724;28;8838;-71
2024/01/15 10:06:11;;;;;;;;;77.33;59.33;;;;;;;;5091022;28;8796;-71
2024/01/15 10:08:36;;;;;;;;;72.67;57.67;;;;;;;;5090764;28;8823;-71
2024/01/15 10:11:04;;;;;;;;;74.33;60.33;;;;;;;;5093576;28;9516;-71
2024/01/15 10:13:30;;;;;;;;;81.00;63.00;;;;;;;;5092531;28;8792;-73
2024/01/15 10:15:55;;;;;;;;;77.33;59.33;;;;;;;;5084120;28;8787;-71
2024/01/15 10:18:20;;;;;;;;;66.33;53.33;;;;;;;;5075442;28;9368;-72
2024/01/15 10:20:46;;;;;;;;;76.33;61.00;;;;;;;;5090681;28;8822;-71
2024/01/15 10:23:12;;;;;;;;;79.67;62.00;;;;;;;;5089931;28;8792;-72
2024/01/15 10:25:37;;;;;;;;;78.67;61.67;;;;;;;;5090890;28;8812;-71
2024/01/15 10:28:03;;;;;;;;;74.67;60.00;;;;;;;;5092176;28;9513;-72
2024/01/15 10:30:29;;;;;;;;;75.00;59.00;;;;;;;;5091161;28;9533;-72
2024/01/15 10:33:01;;;;;;;;;80.67;61.67;;;;;;;;5092339;28;8840;-72
2024/01/15 10:35:30;;;;;;;;;72.67;59.00;;;;;;;;5092226;28;8784;-72
2024/01/15 10:37:56;;;;;;;;;78.00;60.33;;;;;;;;5091656;28;8795;-72
2024/01/15 10:40:21;;;;;;;;;78.33;60.00;;;;;;;;5092683;28;8808;-73
2024/01/15 10:42:47;;;;;;;;;78.33;60.67;;;;;;;;5091231;28;8858;-72
2024/01/15 10:45:13;;;;;;;;;79.33;60.00;;;;;;;;5090783;28;8818;-72
2024/01/15 10:47:38;;;;;;;;;78.00;59.33;;;;;;;;5092187;28;8820;-72
2024/01/15 10:50:06;;;;;;;;;74.33;60.33;;;;;;;;5109422;28;8805;-72
2024/01/15 10:52:31;;;;;;;;;79.33;60.33;;;;;;;;5112852;28;8809;-73
2024/01/15 10:54:57;;;;;;;;;69.00;56.00;;;;;;;;5111329;28;8835;-73
2024/01/15 10:57:23;;;;;;;;;70.67;56.00;;;;;;;;5111128;28;8797;-73
2024/01/15 10:59:48;;;;;;;;;73.33;59.67;;;;;;;;5112799;28;8801;-74
2024/01/15 11:02:14;;;;;;;;;67.00;52.33;;;;;;;;5112492;28;8785;-76
2024/01/15 11:04:39;;;;;;;;;67.67;54.00;;;;;;;;5112570;28;8781;-76
2024/01/15 11:07:05;;;;;;;;;65.67;55.00;;;;;;;;5112324;28;8801;-79
2024/01/15 11:09:30;;;;;;;;;69.00;52.00;;;;;;;;5114320;28;8808;-79
2024/01/15 11:12:09;;;;;;;;;70.00;53.00;;;;;;;;5111922;28;9746;-78
2024/01/15 11:14:35;;;;;;;;;66.33;55.33;;;;;;;;5112502;28;8804;-77
2024/01/15 11:17:00;;;;;;;;;72.00;54.67;;;;;;;;5110680;28;8781;-76
2024/01/15 11:19:26;;;;;;;;;61.67;53.00;;;;;;;;5111017;28;8820;-76
2024/01/15 11:21:51;;;;;;;;;75.00;57.33;;;;;;;;5112058;28;8874;-75
2024/01/15 11:24:46;;;;;;;;;72.00;58.00;;;;;;;;5112432;28;8829;-75
2024/01/15 11:27:11;;;;;;;;;75.00;59.00;;;;;;;;5093507;28;8848;-74
2024/01/15 11:29:37;;;;;;;;;77.00;59.33;;;;;;;;5102595;28;8855;-73
2024/01/15 11:32:04;;;;;;;;;74.33;59.67;;;;;;;;5087259;28;9913;-76
2024/01/15 11:34:48;;;;;;;;;71.33;56.00;;;;;;;;5091304;28;8792;-76
2024/01/15 11:37:13;;;;;;;;;69.33;55.00;;;;;;;;5089865;28;8796;-73
2024/01/15 11:39:44;;;;;;;;;74.67;60.33;;;;;;;;5091001;28;8796;-71
2024/01/15 11:42:11;;;;;;;;;78.00;62.67;;;;;;;;5099285;28;8801;-73
2024/01/15 11:44:37;;;;;;;;;75.67;60.00;;;;;;;;5104550;28;8803;-73
2024/01/15 11:47:03;;;;;;;;;73.33;59.00;;;;;;;;5090840;28;8796;-75
2024/01/15 11:49:31;;;;;;;;;60.33;44.67;;;;;;;;5102819;28;8813;-74
2024/01/15 11:51:58;;;;;;;;;77.67;60.00;;;;;;;;5097309;28;8804;-72
2024/01/15 11:54:23;;;;;;;;;72.67;57.00;;;;;;;;5090666;28;8807;-71
2024/01/15 11:56:49;;;;;;;;;69.67;55.67;;;;;;;;5090014;28;8893;-71
2024/01/15 11:59:15;;;;;;;;;72.33;57.33;;;;;;;;5090882;28;8790;-71
2024/01/15 12:01:41;;;;;;;;;69.33;55.33;;;;;;;;5089241;28;8901;-71
2024/01/15 12:04:06;;;;;;;;;70.33;56.00;;;;;;;;5090912;28;8876;-71
2024/01/15 12:06:31;;;;;;;;;71.00;54.33;;;;;;;;5090615;28;8875;-71
2024/01/15 12:09:06;;;;;;;;;75.00;60.00;;;;;;;;5090703;28;8844;-72
2024/01/15 12:11:33;;;;;;;;;71.00;56.67;;;;;;;;5089070;28;8951;-71
2024/01/15 12:13:59;;;;;;;;;71.67;57.33;;;;;;;;5090909;28;8780;-71
2024/01/15 12:16:25;;;;;;;;;71.33;57.67;;;;;;;;5089191;28;8943;-71
2024/01/15 12:18:50;;;;;;;;;71.00;57.00;;;;;;;;5097318;28;8817;-72
2024/01/15 12:21:16;;;;;;;;;71.00;55.33;;;;;;;;5103946;28;8808;-72
2024/01/15 12:23:41;;;;;;;;;68.00;55.67;;;;;;;;5089175;28;8808;-73
2024/01/15 12:26:06;;;;;;;;;71.00;56.67;;;;;;;;5090422;28;8796;-74
2024/01/15 12:28:31;;;;;;;;;74.67;56.67;;;;;;;;5089940;28;8796;-70
2024/01/15 12:30:59;;;;;;;;;78.67;62.00;;;;;;;;5087596;28;8830;-74
2024/01/15 12:33:24;;;;;;;;;75.00;61.00;;;;;;;;5088804;28;9584;-73
2024/01/15 12:35:52;;;;;;;;;74.33;61.00;;;;;;;;5090276;28;8842;-74
2024/01/15 12:38:19;;;;;;;;;75.67;60.33;;;;;;;;5090270;28;8811;-73
2024/01/15 12:40:46;;;;;;;;;75.00;58.67;;;;;;;;5089449;28;8784;-71
2024/01/15 12:43:11;;;;;;;;;68.33;57.00;;;;;;;;5089747;28;8782;-71
2024/01/15 12:45:37;;;;;;;;;70.00;58.67;;;;;;;;5089040;28;8841;-71
2024/01/15 12:48:03;;;;;;;;;71.00;55.33;;;;;;;;5089122;28;8866;-73
2024/01/15 12:50:29;;;;;;;;;66.67;52.00;;;;;;;;5108869;28;9539;-72
2024/01/15 12:52:54;;;;;;;;;70.00;53.67;;;;;;;;5090284;28;11557;-71
2024/01/15 12:55:19;;;;;;;;;67.67;52.67;;;;;;;;5089936;28;8792;-72
2024/01/15 12:57:45;;;;;;;;;59.33;48.67;;;;;;;;5089942;28;8826;-71
2024/01/15 13:00:12;;;;;;;;;61.00;51.00;;;;;;;;5090000;28;8808;-73
2024/01/15 13:02:37;;;;;;;;;63.25;48.75;;;;;;;;5103598;28;8940;-70
2024/01/15 13:05:04;;;;;;;;;54.25;45.00;;;;;;;;5109866;28;11512;-72
2024/01/15 13:07:29;;;;;;;;;55.50;43.00;;;;;;;;5110300;28;8920;-73
2024/01/15 13:09:55;;;;;;;;;46.50;39.75;;;;;;;;5108775;28;11650;-74
2024/01/15 13:12:20;;;;;;;;;39.50;39.25;;;;;;;;5094107;28;8891;-73
2024/01/15 13:14:47;;;;;;;;;37.50;36.50;;;;;;;;5088746;28;8860;-74
2024/01/15 13:17:14;;;;;;;;;40.00;34.00;;;;;;;;5089562;28;8883;-73
2024/01/15 13:19:39;;;;;;;;;34.50;29.25;;;;;;;;5103461;28;11485;-73
2024/01/15 13:22:06;;;;;;;;;31.75;25.25;;;;;;;;5104644;28;11586;-73
2024/01/15 13:24:32;;;;;;;;;27.75;26.00;;;;;;;;5109036;28;8777;-73
2024/01/15 13:26:57;;;;;;;;;35.50;30.75;;;;;;;;5110030;28;11472;-74
2024/01/15 13:29:22;;;;;;;;;29.75;29.00;;;;;;;;5109983;28;8905;-73
2024/01/15 13:31:49;;;;;;;;;38.50;34.50;;;;;;;;5106542;28;8966;-73
2024/01/15 13:34:14;;;;;;;;;39.00;33.00;;;;;;;;5109993;28;8909;-72
2024/01/15 13:36:39;;;;;;;;;40.00;35.75;;;;;;;;5112397;28;11070;-74
2024/01/15 13:39:08;;;;;;;;;34.25;29.50;;;;;;;;5113576;28;8786;-72
2024/01/15 13:41:33;;;;;;;;;46.50;37.50;;;;;;;;5110570;27;8814;-72
2024/01/15 13:43:59;;;;;;;;;34.25;29.25;;;;;;;;5113842;28;12247;-70
2024/01/15 13:46:29;;;;;;;;;29.50;25.50;;;;;;;;5042793;28;10569;-75
2024/01/15 13:48:54;;;;;;;;;28.25;22.00;;;;;;;;5063999;28;8837;-75
2024/01/15 13:51:22;;;;;;;;;18.75;17.00;;;;;;;;5050620;28;11604;-68
2024/01/15 13:53:47;;;;;;;;;13.50;12.25;;;;;;;;5062029;28;8897;-71
2024/01/15 13:56:12;;;;;;;;;15.75;13.25;;;;;;;;5041550;28;11515;-68
2024/01/15 13:58:37;;;;;;;;;16.75;13.00;;;;;;;;5047953;28;8812;-68
2024/01/15 14:01:06;;;;;;;;;14.75;14.00;;;;;;;;5034751;28;8935;-68
2024/01/15 14:03:31;;;;;;;;;14.25;13.50;;;;;;;;5052646;28;8927;-68
2024/01/15 14:05:56;;;;;;;;;13.50;11.00;;;;;;;;5052659;28;11495;-68
2024/01/15 14:08:22;;;;;;;;;13.00;11.25;;;;;;;;5052889;28;9543;-68
2024/01/15 14:10:47;;;;;;;;;16.50;10.00;;;;;;;;5051249;28;8845;-68
2024/01/15 14:13:13;;;;;;;;;12.25;9.75;;;;;;;;5049106;28;8844;-69
2024/01/15 14:15:38;;;;;;;;;13.25;10.00;;;;;;;;5052700;28;8805;-69
2024/01/15 14:18:04;;;;;;;;;12.00;10.00;;;;;;;;5069192;28;8899;-69
2024/01/15 14:20:29;;;;;;;;;16.00;13.00;;;;;;;;5072431;28;8941;-70
2024/01/15 14:22:54;;;;;;;;;9.75;9.75;;;;;;;;5069892;28;8818;-70
2024/01/15 14:25:20;;;;;;;;;13.50;12.25;;;;;;;;5072606;28;8771;-70
2024/01/15 14:27:45;;;;;;;;;12.00;9.75;;;;;;;;5072608;28;9642;-72
2024/01/15 14:30:12;;;;;;;;;14.50;10.50;;;;;;;;5071949;28;8841;-72
2024/01/15 14:32:38;;;;;;;;;17.25;13.50;;;;;;;;5072322;28;8791;-72
2024/01/15 14:35:04;;;;;;;;;13.00;13.00;;;;;;;;5072029;28;11583;-72
2024/01/15 14:37:30;;;;;;;;;21.25;14.00;;;;;;;;5072469;28;8791;-72
2024/01/15 14:39:56;;;;;;;;;16.25;12.50;;;;;;;;5070576;28;11480;-72
2024/01/15 14:42:21;;;;;;;;;10.50;10.50;;;;;;;;5072530;28;8787;-72
2024/01/15 14:44:47;;;;;;;;;11.25;11.25;;;;;;;;5072303;28;8886;-72
2024/01/15 14:47:12;;;;;;;;;15.50;11.25;;;;;;;;5104784;28;8814;-71
2024/01/15 14:49:37;;;;;;;;;13.25;13.25;;;;;;;;5071558;28;9019;-72
2024/01/15 14:52:03;;;;;;;;;16.75;14.25;;;;;;;;5072028;28;9606;-72
2024/01/15 14:54:28;;;;;;;;;16.00;13.75;;;;;;;;5071854;28;8782;-73
2024/01/15 14:56:53;;;;;;;;;12.75;11.25;;;;;;;;5071938;28;8790;-71
2024/01/15 14:59:18;;;;;;;;;17.25;17.25;;;;;;;;5071838;28;8798;-73
2024/01/15 15:01:44;;;;;;;;;20.50;17.00;;;;;;;;5071857;28;8803;-73
2024/01/15 15:04:10;;;;;;;;;17.75;10.00;;;;;;;;5071692;28;8778;-73
2024/01/15 15:06:35;;;;;;;;;15.00;13.00;;;;;;;;5071987;28;8802;-73
2024/01/15 15:09:01;;;;;;;;;11.75;9.00;;;;;;;;5071302;28;11550;-73
2024/01/15 15:11:27;;;;;;;;;15.00;12.00;;;;;;;;5104554;28;8828;-73
2024/01/15 15:13:52;;;;;;;;;12.00;10.00;;;;;;;;5045435;28;8819;-72
2024/01/15 15:16:17;;;;;;;;;9.00;9.00;;;;;;;;5049776;28;8813;-72
2024/01/15 15:18:43;;;;;;;;;10.00;9.25;;;;;;;;5055896;28;8834;-72
2024/01/15 15:21:09;;;;;;;;;12.25;9.00;;;;;;;;5071331;28;8886;-71
2024/01/15 15:23:34;;;;;;;;;13.00;12.25;;;;;;;;5104441;28;8814;-76
2024/01/15 15:25:59;;;;;;;;;10.25;9.50;;;;;;;;5071155;28;8783;-69
2024/01/15 15:28:24;;;;;;;;;12.75;12.00;;;;;;;;5071258;28;8881;-70
2024/01/15 15:30:50;;;;;;;;;17.75;10.00;;;;;;;;5070848;28;8803;-69
2024/01/15 15:33:16;;;;;;;;;9.25;8.00;;;;;;;;5051872;28;8805;-70
2024/01/15 15:35:41;;;;;;;;;9.75;9.50;;;;;;;;5050679;28;8862;-73
2024/01/15 15:38:06;;;;;;;;;10.25;7.00;;;;;;;;5050824;28;9523;-77
2024/01/15 15:40:31;;;;;;;;;9.50;8.50;;;;;;;;5051002;28;8816;-73
2024/01/15 15:42:57;;;;;;;;;13.50;10.50;;;;;;;;5050112;28;8905;-75
2024/01/15 15:45:22;;;;;;;;;6.00;6.00;;;;;;;;5048998;28;10006;-67
2024/01/15 15:47:48;;;;;;;;;9.50;9.50;;;;;;;;5049549;28;8785;-67
2024/01/15 15:50:13;;;;;;;;;32.75;28.25;;;;;;;;5067149;28;8846;-70
2024/01/15 15:52:38;;;;;;;;;11.50;10.50;;;;;;;;5050210;28;8816;-68
2024/01/15 15:55:04;;;;;;;;;13.75;9.00;;;;;;;;5034160;28;8780;-72
2024/01/15 15:57:29;;;;;;;;;8.00;8.00;;;;;;;;5031216;28;8807;-72
2024/01/15 15:59:55;;;;;;;;;12.00;12.00;;;;;;;;5031955;28;9556;-70
2024/01/15 16:02:20;;;;;;;;;12.50;10.00;;;;;;;;5031190;28;8800;-71
2024/01/15 16:04:46;;;;;;;;;9.00;8.00;;;;;;;;5030908;28;8811;-70
2024/01/15 16:07:11;;;;;;;;;12.00;10.50;;;;;;;;5030974;28;8815;-68
2024/01/15 16:09:36;;;;;;;;;7.50;5.75;;;;;;;;5031063;28;9577;-68
2024/01/15 16:12:03;;;;;;;;;8.25;7.50;;;;;;;;5030600;28;9528;-67
2024/01/15 16:14:28;;;;;;;;;9.25;7.50;;;;;;;;5030731;28;8792;-69
2024/01/15 16:16:57;;;;;;;;;12.75;9.00;;;;;;;;5030575;28;12131;-69
2024/01/15 16:19:23;;;;;;;;;9.25;8.75;;;;;;;;5047631;28;8801;-69
2024/01/15 16:21:48;;;;;;;;;9.75;9.00;;;;;;;;5040138;28;11521;-71
2024/01/15 16:24:14;;;;;;;;;10.25;10.25;;;;;;;;5030600;28;8857;-69
2024/01/15 16:26:39;;;;;;;;;9.25;6.75;;;;;;;;5030699;28;8815;-68
2024/01/15 16:29:05;;;;;;;;;9.25;9.25;;;;;;;;5030528;28;8828;-68
2024/01/15 16:31:31;;;;;;;;;11.50;11.50;;;;;;;;5030705;28;8776;-71
2024/01/15 16:33:56;;;;;;;;;13.00;11.75;;;;;;;;5045741;28;8819;-68
2024/01/15 16:36:21;;;;;;;;;13.00;9.75;;;;;;;;5030537;28;8788;-68
2024/01/15 16:38:47;;;;;;;;;8.75;8.50;;;;;;;;5029544;28;9017;-68
2024/01/15 16:41:12;;;;;;;;;9.25;8.00;;;;;;;;5030133;28;8814;-70
2024/01/15 16:43:37;;;;;;;;;9.25;4.50;;;;;;;;5045871;28;8885;-70
2024/01/15 16:46:02;;;;;;;;;7.00;7.00;;;;;;;;5030400;28;8803;-69
2024/01/15 16:48:28;;;;;;;;;4.00;4.00;;;;;;;;5037375;28;8810;-69
2024/01/15 16:50:53;;;;;;;;;6.00;6.00;;;;;;;;5070205;28;8815;-68
2024/01/15 16:53:19;;;;;;;;;8.00;5.75;;;;;;;;5070513;28;8786;-69
2024/01/15 16:55:44;;;;;;;;;10.25;8.00;;;;;;;;5070391;28;8774;-69
2024/01/15 16:58:09;;;;;;;;;10.75;5.50;;;;;;;;5070318;28;8823;-69
2024/01/15 17:00:35;;;;;;;;;7.50;6.00;;;;;;;;5069076;28;9548;-69
2024/01/15 17:03:00;;;;;;;;;10.50;5.00;;;;;;;;5070405;28;8783;-69
2024/01/15 17:05:25;;;;;;;;;8.75;4.00;;;;;;;;5084061;28;8798;-70
2024/01/15 17:07:51;;;;;;;;;5.75;5.00;;;;;;;;5048033;28;8834;-71
2024/01/15 17:10:16;;;;;;;;;7.50;5.25;;;;;;;;5045494;28;8832;-78
2024/01/15 17:12:42;;;;;;;;;6.75;5.75;;;;;;;;5053319;28;8820;-73
2024/01/15 17:15:07;;;;;;;;;10.75;8.75;;;;;;;;5053197;28;8835;-71
2024/01/15 17:17:33;;;;;;;;;5.50;5.50;;;;;;;;5050306;28;8817;-72
2024/01/15 17:19:58;;;;;;;;;10.00;7.00;;;;;;;;5053316;28;9627;-71
2024/01/15 17:22:23;;;;;;;;;26.25;17.00;;;;;;;;5052832;28;8794;-71
2024/01/15 17:24:49;;;;;;;;;12.75;12.50;;;;;;;;5053006;28;8789;-72
2024/01/15 17:27:14;;;;;;;;;10.25;8.00;;;;;;;;5055065;28;8901;-72
2024/01/15 17:29:39;;;;;;;;;16.00;15.75;;;;;;;;5049208;28;8853;-72
2024/01/15 17:32:06;;;;;;;;;20.25;20.00;;;;;;;;5052900;28;8842;-72
2024/01/15 17:34:32;;;;;;;;;11.00;9.75;;;;;;;;5052581;28;8786;-72
2024/01/15 17:36:58;;;;;;;;;13.00;6.00;;;;;;;;5052782;28;11587;-72
2024/01/15 17:39:23;;;;;;;;;8.25;7.50;;;;;;;;5051832;28;8833;-69
2024/01/15 17:41:48;;;;;;;;;8.75;5.00;;;;;;;;5053425;28;11457;-72
2024/01/15 17:44:14;;;;;;;;;9.00;8.00;;;;;;;;5052953;28;9475;-69
2024/01/15 17:46:39;;;;;;;;;7.50;7.50;;;;;;;;5053101;28;8785;-70
2024/01/15 17:49:04;;;;;;;;;6.00;6.00;;;;;;;;5052592;28;8924;-71
2024/01/15 17:51:32;;;;;;;;;13.75;7.50;;;;;;;;5052945;28;8843;-70
2024/01/15 17:53:58;;;;;;;;;11.50;9.75;;;;;;;;5052971;28;8805;-69
2024/01/15 17:56:23;;;;;;;;;14.50;9.00;;;;;;;;5051418;28;11610;-70
2024/01/15 17:58:49;;;;;;;;;9.25;9.00;;;;;;;;5050240;28;9558;-70
2024/01/15 18:01:14;;;;;;;;;13.00;8.75;;;;;;;;5081455;28;8805;-70
2024/01/15 18:03:40;;;;;;;;;11.25;8.50;;;;;;;;5052867;28;9837;-71
2024/01/15 18:06:06;;;;;;;;;13.50;9.75;;;;;;;;5052445;28;9523;-70
2024/01/15 18:08:31;;;;;;;;;4.00;2.00;;;;;;;;5050530;28;8793;-70
2024/01/15 18:10:56;;;;;;;;;9.75;9.75;;;;;;;;5052530;28;11552;-70
2024/01/15 18:13:22;;;;;;;;;9.00;8.25;;;;;;;;5052450;28;9522;-70
2024/01/15 18:15:55;;;;;;;;;16.75;16.00;;;;;;;;5052662;28;8837;-70
2024/01/15 18:18:20;;;;;;;;;13.00;12.25;;;;;;;;5052172;28;11619;-71
2024/01/15 18:20:45;;;;;;;;;13.00;11.00;;;;;;;;5052141;28;11534;-71
2024/01/15 18:23:11;;;;;;;;;12.25;9.75;;;;;;;;5052179;28;8832;-72
2024/01/15 18:25:38;;;;;;;;;10.75;9.50;;;;;;;;5052612;28;8829;-71
2024/01/15 18:28:04;;;;;;;;;9.50;8.00;;;;;;;;5050196;28;8836;-68
2024/01/15 18:30:29;;;;;;;;;10.00;10.00;;;;;;;;5052153;28;11473;-69
2024/01/15 18:32:55;;;;;;;;;14.75;13.75;;;;;;;;5052336;28;8801;-70
2024/01/15 18:35:21;;;;;;;;;12.00;12.00;;;;;;;;5049776;28;8782;-70
2024/01/15 18:37:46;;;;;;;;;9.50;8.25;;;;;;;;5050583;28;8826;-71
2024/01/15 18:40:12;;;;;;;;;9.75;8.75;;;;;;;;5052415;28;11452;-70
2024/01/15 18:42:37;;;;;;;;;10.00;8.75;;;;;;;;5051368;28;8827;-69
2024/01/15 18:45:02;;;;;;;;;13.75;12.25;;;;;;;;5052892;28;8793;-70
2024/01/15 18:47:27;;;;;;;;;13.25;10.00;;;;;;;;5051771;28;8823;-69
2024/01/15 18:49:53;;;;;;;;;14.75;10.75;;;;;;;;5067189;28;8957;-76
2024/01/15 18:52:21;;;;;;;;;11.25;8.75;;;;;;;;5072391;28;8783;-73
2024/01/15 18:54:46;;;;;;;;;12.25;10.50;;;;;;;;5072865;28;8855;-72
2024/01/15 18:57:11;;;;;;;;;13.25;10.00;;;;;;;;5059395;28;11499;-72
2024/01/15 18:59:37;;;;;;;;;16.00;13.25;;;;;;;;5052511;28;8864;-72
2024/01/15 19:02:02;;;;;;;;;14.00;12.25;;;;;;;;5052300;28;8805;-72
2024/01/15 19:04:28;;;;;;;;;17.25;14.50;;;;;;;;5052100;28;8820;-71
2024/01/15 19:06:53;;;;;;;;;20.25;17.00;;;;;;;;5052210;28;8801;-71
2024/01/15 19:09:19;;;;;;;;;14.75;14.00;;;;;;;;5052028;28;8936;-71
2024/01/15 19:11:44;;;;;;;;;27.00;19.75;;;;;;;;5052007;28;9593;-71
2024/01/15 19:14:09;;;;;;;;;17.00;17.00;;;;;;;;5052026;28;8812;-70
2024/01/15 19:16:34;;;;;;;;;19.75;18.50;;;;;;;;5052048;28;8962;-70
2024/01/15 19:19:00;;;;;;;;;20.25;17.50;;;;;;;;5059857;28;8802;-70
2024/01/15 19:21:25;;;;;;;;;19.25;17.00;;;;;;;;5071761;28;8810;-70
2024/01/15 19:23:50;;;;;;;;;20.25;16.25;;;;;;;;5071940;28;8775;-70
2024/01/15 19:26:19;;;;;;;;;21.50;16.50;;;;;;;;5071534;28;8896;-71
2024/01/15 19:28:44;;;;;;;;;43.75;40.75;;;;;;;;5072560;28;8786;-71
2024/01/15 19:31:10;;;;;;;;;61.00;47.50;;;;;;;;5104859;28;12308;-72
2024/01/15 19:33:35;;;;;;;;;22.75;22.75;;;;;;;;5053144;28;8916;-73
2024/01/15 19:36:01;;;;;;;;;24.00;24.00;;;;;;;;5050928;28;9506;-70
2024/01/15 19:38:27;;;;;;;;;14.00;13.00;;;;;;;;5051089;28;9534;-71
2024/01/15 19:40:52;;;;;;;;;14.00;14.00;;;;;;;;5051053;28;8829;-71
2024/01/15 19:43:17;;;;;;;;;15.50;14.25;;;;;;;;5051472;28;11536;-71
2024/01/15 19:45:42;;;;;;;;;15.75;15.00;;;;;;;;5051337;28;9553;-71
2024/01/15 19:48:08;;;;;;;;;21.00;15.25;;;;;;;;5052310;28;8793;-72
2024/01/15 19:50:33;;;;;;;;;16.25;13.50;;;;;;;;5070961;28;8861;-71
2024/01/15 19:52:59;;;;;;;;;20.00;16.00;;;;;;;;5071275;28;8894;-70
2024/01/15 19:55:24;;;;;;;;;14.00;13.75;;;;;;;;5071061;28;8790;-71
2024/01/15 19:57:49;;;;;;;;;11.25;11.25;;;;;;;;5071007;28;8818;-72
2024/01/15 20:00:15;;;;;;;;;17.25;15.00;;;;;;;;5069880;28;8818;-71
2024/01/15 20:02:40;;;;;;;;;16.75;16.75;;;;;;;;5045599;28;8805;-70
2024/01/15 20:05:07;;;;;;;;;17.00;14.00;;;;;;;;5048704;28;8918;-73
2024/01/15 20:07:32;;;;;;;;;12.00;11.50;;;;;;;;5047837;28;8820;-71
2024/01/15 20:09:57;;;;;;;;;15.00;15.00;;;;;;;;5049436;28;11482;-72
2024/01/15 20:12:22;;;;;;;;;16.25;14.25;;;;;;;;5049677;28;9558;-69
2024/01/15 20:14:48;;;;;;;;;14.50;14.50;;;;;;;;5051085;28;8805;-72
2024/01/15 20:17:13;;;;;;;;;17.50;17.00;;;;;;;;5048624;28;8914;-70
2024/01/15 20:19:39;;;;;;;;;14.00;14.00;;;;;;;;5068100;28;8833;-70
2024/01/15 20:22:04;;;;;;;;;19.00;16.25;;;;;;;;5052235;28;8797;-73
2024/01/15 20:24:29;;;;;;;;;18.00;18.00;;;;;;;;5050593;28;8879;-73
2024/01/15 20:26:55;;;;;;;;;17.25;17.25;;;;;;;;5050730;28;8835;-72
2024/01/15 20:29:20;;;;;;;;;21.50;18.00;;;;;;;;5050754;28;8845;-72
2024/01/15 20:31:45;;;;;;;;;20.50;18.00;;;;;;;;5050708;28;8786;-71
2024/01/15 20:34:12;;;;;;;;;25.75;24.00;;;;;;;;5050689;28;9731;-69
2024/01/15 20:36:38;;;;;;;;;22.25;21.50;;;;;;;;5050497;28;8824;-71
2024/01/15 20:39:03;;;;;;;;;12.00;12.00;;;;;;;;5050514;28;11553;-71
2024/01/15 20:41:28;;;;;;;;;25.00;20.75;;;;;;;;5049658;28;11525;-69
2024/01/15 20:43:54;;;;;;;;;20.75;18.00;;;;;;;;5050570;28;8800;-68
2024/01/15 20:46:20;;;;;;;;;22.75;21.50;;;;;;;;5048990;28;8848;-71
2024/01/15 20:48:46;;;;;;;;;20.33;20.00;;;;;;;;5055898;28;11648;-69
2024/01/15 20:51:12;;;;;;;;;28.00;22.50;;;;;;;;5070436;28;8774;-70
2024/01/15 20:53:39;;;;;;;;;22.50;17.25;;;;;;;;5073378;28;11559;-69
2024/01/15 20:56:05;;;;;;;;;23.00;18.25;;;;;;;;5070202;28;8807;-72
2024/01/15 20:58:30;;;;;;;;;25.25;24.00;;;;;;;;5070472;28;11593;-74
2024/01/15 21:00:56;;;;;;;;;23.00;22.00;;;;;;;;5046865;28;11539;-72
2024/01/15 21:03:22;;;;;;;;;29.50;25.75;;;;;;;;5047175;28;8801;-73
2024/01/15 21:05:47;;;;;;;;;29.00;23.50;;;;;;;;5049209;28;8840;-73
2024/01/15 21:08:14;;;;;;;;;29.00;24.75;;;;;;;;5049408;28;11518;-74
2024/01/15 21:10:40;;;;;;;;;30.25;25.75;;;;;;;;5049270;28;8833;-75
2024/01/15 21:13:06;;;;;;;;;26.75;24.25;;;;;;;;5048190;28;12186;-73
2024/01/15 21:15:32;;;;;;;;;23.75;19.00;;;;;;;;5047302;28;11640;-73
2024/01/15 21:17:57;;;;;;;;;25.75;25.50;;;;;;;;5049541;28;11764;-77
2024/01/15 21:20:22;;;;;;;;;27.00;26.00;;;;;;;;5050654;28;9543;-74
2024/01/15 21:22:48;;;;;;;;;34.25;30.00;;;;;;;;5050347;28;8833;-74
2024/01/15 21:25:13;;;;;;;;;31.75;27.50;;;;;;;;5050024;28;8824;-72
2024/01/15 21:27:40;;;;;;;;;29.00;24.75;;;;;;;;5048839;28;8781;-73
2024/01/15 21:30:06;;;;;;;;;30.00;25.50;;;;;;;;5045959;28;8837;-73
2024/01/15 21:32:31;;;;;;;;;28.50;22.75;;;;;;;;5047589;28;11544;-73
2024/01/15 21:34:56;;;;;;;;;27.00;23.00;;;;;;;;5048194;28;8801;-73
2024/01/15 21:37:21;;;;;;;;;20.50;19.75;;;;;;;;5048929;28;8812;-73
2024/01/15 21:39:47;;;;;;;;;24.00;20.50;;;;;;;;5048138;28;8817;-72
2024/01/15 21:42:12;;;;;;;;;25.75;21.25;;;;;;;;5048808;28;8816;-73
2024/01/15 21:44:38;;;;;;;;;23.00;20.75;;;;;;;;5048613;28;8906;-73
2024/01/15 21:47:03;;;;;;;;;20.00;16.50;;;;;;;;5046601;28;8774;-72
2024/01/15 21:49:28;;;;;;;;;24.00;22.00;;;;;;;;5049925;28;8841;-72
2024/01/15 21:51:54;;;;;;;;;24.25;20.00;;;;;;;;5048765;28;8793;-72
2024/01/15 21:54:19;;;;;;;;;22.00;20.00;;;;;;;;5050051;28;8789;-72
2024/01/15 21:56:44;;;;;;;;;22.25;20.00;;;;;;;;5049445;28;8814;-72
2024/01/15 21:59:09;;;;;;;;;23.50;18.75;;;;;;;;5052540;28;9541;-72
2024/01/15 22:01:35;;;;;;;;;20.50;19.75;;;;;;;;5052298;28;8858;-72
2024/01/15 22:04:00;;;;;;;;;20.50;18.75;;;;;;;;5049543;28;8823;-72
2024/01/15 22:06:26;;;;;;;;;21.75;21.25;;;;;;;;5050242;28;8785;-73
2024/01/15 22:08:51;;;;;;;;;21.75;19.00;;;;;;;;5052187;28;8790;-73
2024/01/15 22:11:16;;;;;;;;;26.25;22.50;;;;;;;;5052138;28;8939;-74
2024/01/15 22:13:41;;;;;;;;;26.50;26.50;;;;;;;;5052401;28;8809;-72
2024/01/15 22:16:07;;;;;;;;;26.50;25.25;;;;;;;;5052229;28;9593;-73
2024/01/15 22:18:34;;;;;;;;;29.75;27.50;;;;;;;;5054010;28;8807;-71
2024/01/15 22:21:02;;;;;;;;;31.25;24.00;;;;;;;;5048055;28;8936;-71
2024/01/15 22:23:27;;;;;;;;;31.00;28.50;;;;;;;;5052053;28;11568;-72
2024/01/15 22:25:53;;;;;;;;;33.25;29.75;;;;;;;;5047281;28;11681;-72
2024/01/15 22:28:18;;;;;;;;;30.00;29.25;;;;;;;;5052090;28;8789;-72
2024/01/15 22:30:43;;;;;;;;;27.75;27.50;;;;;;;;5052133;28;8918;-72
2024/01/15 22:33:09;;;;;;;;;36.50;33.25;;;;;;;;5052111;28;8904;-72
2024/01/15 22:35:34;;;;;;;;;36.25;31.75;;;;;;;;5045421;28;9557;-72
2024/01/15 22:38:01;;;;;;;;;36.75;31.25;;;;;;;;5051651;28;8851;-72
2024/01/15 22:40:26;;;;;;;;;35.00;33.75;;;;;;;;5051754;28;8801;-72
2024/01/15 22:42:51;;;;;;;;;33.25;30.00;;;;;;;;5051797;28;11524;-72
2024/01/15 22:45:16;;;;;;;;;36.50;36.00;;;;;;;;5051150;28;8813;-71
2024/01/15 22:47:42;;;;;;;;;35.75;33.25;;;;;;;;5051654;28;9519;-73
2024/01/15 22:50:07;;;;;;;;;32.25;29.25;;;;;;;;5067263;28;8889;-73
2024/01/15 22:52:32;;;;;;;;;37.25;36.00;;;;;;;;5072470;28;8783;-72
2024/01/15 22:54:58;;;;;;;;;34.00;31.25;;;;;;;;5072793;28;8929;-73
2024/01/15 22:57:26;;;;;;;;;29.50;26.75;;;;;;;;5072705;28;8779;-73
2024/01/15 22:59:51;;;;;;;;;40.00;37.25;;;;;;;;5072695;28;8794;-73
2024/01/15 23:02:17;;;;;;;;;45.25;36.50;;;;;;;;5072388;28;11640;-73
2024/01/15 23:04:43;;;;;;;;;40.00;35.00;;;;;;;;5071034;28;8836;-73
2024/01/15 23:07:08;;;;;;;;;34.50;31.50;;;;;;;;5072171;28;11522;-73
2024/01/15 23:09:33;;;;;;;;;41.25;39.00;;;;;;;;5072286;28;8825;-73
2024/01/15 23:11:58;;;;;;;;;42.25;38.25;;;;;;;;5072341;28;8786;-73
2024/01/15 23:14:24;;;;;;;;;46.75;40.25;;;;;;;;5072265;28;8903;-74